Time;durP1;ratioP1;P1;durP2;ratioP2;P2;SDS_P1;SDS_P2;PMS_P1;PMS_P2;Temp;Humidity;BMP_temperature;BMP_pressure;BME280_temperature;BME280_humidity;BME280_pressure;Samples;Min_cycle;Max_cycle;Signal;HPM_P1;HPM_P2
2022/02/27 00:00:28;;;;;;;26.05;10.60;;;3.00;99.90;;;0.24;100.00;102258.25;4950610;28;20487;-86
2022/02/27 00:02:55;;;;;;;32.08;10.40;;;3.00;99.90;;;0.27;100.00;102258.97;4950846;28;20055;-86
2022/02/27 00:05:22;;;;;;;26.95;9.75;;;3.00;99.90;;;0.37;100.00;102257.56;5016735;28;20649;-86
2022/02/27 00:07:49;;;;;;;26.98;10.05;;;3.00;99.90;;;0.49;100.00;102255.22;4950575;28;20133;-87
2022/02/27 00:10:20;;;;;;;28.30;10.43;;;3.00;99.90;;;0.51;100.00;102258.69;4950698;28;20047;-86
2022/02/27 00:12:47;;;;;;;29.67;10.13;;;3.00;99.90;;;0.40;100.00;102253.91;4950848;28;20047;-87
2022/02/27 00:15:15;;;;;;;30.45;10.40;;;3.00;99.90;;;0.44;100.00;102257.25;5032479;28;20079;-87
2022/02/27 00:17:42;;;;;;;26.48;10.27;;;3.00;99.90;;;0.34;100.00;102255.06;4950795;28;20058;-87
2022/02/27 00:20:12;;;;;;;28.48;9.88;;;3.20;99.90;;;0.43;100.00;102252.88;4950034;28;20039;-86
2022/02/27 00:22:39;;;;;;;30.52;10.43;;;3.00;99.90;;;0.44;100.00;102257.25;4950391;29;20043;-87
2022/02/27 00:25:09;;;;;;;31.90;9.95;;;3.00;99.90;;;0.44;100.00;102254.59;5016616;28;20083;-86
2022/02/27 00:27:39;;;;;;;27.40;9.38;;;3.00;99.90;;;0.40;100.00;102248.53;4950300;28;20557;-85
2022/02/27 00:30:09;;;;;;;22.60;8.82;;;3.00;99.90;;;0.36;100.00;102253.19;5016354;28;20053;-85
2022/02/27 00:32:38;;;;;;;26.35;8.52;;;3.00;99.90;;;0.42;100.00;102252.00;4950501;28;20045;-85
2022/02/27 00:35:08;;;;;;;27.63;9.65;;;2.90;99.90;;;0.35;100.00;102246.06;4949262;28;20134;-85
2022/02/27 00:37:36;;;;;;;23.33;9.02;;;2.90;99.90;;;0.32;100.00;102248.88;5032588;28;20143;-84
2022/02/27 00:40:06;;;;;;;26.33;9.25;;;2.90;99.90;;;0.28;100.00;102243.78;4948916;28;20104;-84
2022/02/27 00:42:33;;;;;;;20.35;8.93;;;2.90;99.90;;;0.24;100.00;102248.41;4950163;28;20043;-85
2022/02/27 00:45:02;;;;;;;26.00;8.38;;;2.90;99.90;;;0.30;100.00;102245.41;4955465;28;20141;-85
2022/02/27 00:47:29;;;;;;;23.55;9.18;;;2.90;99.90;;;0.27;100.00;102234.03;4967757;28;20496;-85
2022/02/27 00:49:57;;;;;;;23.20;8.73;;;2.90;99.90;;;0.17;100.00;102241.59;5016155;28;20108;-86
2022/02/27 00:52:24;;;;;;;27.60;8.35;;;2.90;99.90;;;0.14;100.00;102249.81;4950099;29;20096;-85
2022/02/27 00:54:54;;;;;;;24.63;8.50;;;3.00;99.90;;;0.11;100.00;102247.25;5032580;28;20524;-85
2022/02/27 00:57:23;;;;;;;27.13;8.00;;;2.90;99.90;;;0.04;100.00;102246.72;5016266;28;20102;-86
2022/02/27 00:59:50;;;;;;;26.40;8.80;;;2.80;99.90;;;-0.16;100.00;102236.94;4947879;22;20474;-91
2022/02/27 01:02:19;;;;;;;20.73;8.25;;;2.80;99.90;;;-0.13;100.00;102250.19;5012296;28;20052;-92
2022/02/27 01:04:47;;;;;;;21.90;8.18;;;2.80;99.90;;;-0.20;100.00;102238.03;4995359;28;20093;-92
2022/02/27 01:07:16;;;;;;;22.58;8.63;;;2.80;99.90;;;-0.17;100.00;102245.94;5012230;28;20090;-91
2022/02/27 01:09:45;;;;;;;21.48;7.70;;;2.70;99.90;;;-0.25;100.00;102245.41;4911059;29;20059;-92
2022/02/27 01:12:12;;;;;;;23.85;8.82;;;2.70;99.90;;;-0.27;100.00;102232.09;4992631;28;20383;-92
2022/02/27 01:14:40;;;;;;;23.95;8.60;;;2.60;99.90;;;-0.21;100.00;102241.63;4911231;29;20044;-92
2022/02/27 01:17:07;;;;;;;22.88;9.27;;;2.60;99.90;;;-0.25;100.00;102229.34;4911445;29;20044;-90
2022/02/27 01:19:36;;;;;;;24.30;8.05;;;2.50;99.90;;;-0.25;100.00;102240.03;4975357;28;20391;-92
2022/02/27 01:22:06;;;;;;;22.02;8.32;;;2.50;99.90;;;-0.31;100.00;102243.00;4976358;28;20048;-92
2022/02/27 01:24:37;;;;;;;23.60;8.40;;;2.50;99.90;;;-0.32;100.00;102239.47;4992584;28;20480;-92
2022/02/27 01:27:10;;;;;;;21.88;7.53;;;2.50;99.90;;;-0.33;100.00;102236.88;4976062;28;20048;-92
2022/02/27 01:29:38;;;;;;;20.73;8.63;;;2.50;99.90;;;-0.38;100.00;102239.78;4992987;28;20045;-91
2022/02/27 01:32:07;;;;;;;16.70;7.55;;;2.50;99.90;;;-0.35;100.00;102242.28;4911253;29;20068;-92
2022/02/27 01:34:35;;;;;;;24.27;8.30;;;2.50;99.90;;;-0.45;100.00;102230.28;4992329;28;20055;-92
2022/02/27 01:37:03;;;;;;;27.70;9.07;;;2.50;99.90;;;-0.45;100.00;102243.66;4910464;28;20048;-92
2022/02/27 01:39:33;;;;;;;20.67;8.80;;;2.40;99.90;;;-0.40;100.00;102242.50;4911448;29;20071;-92
2022/02/27 01:42:05;;;;;;;23.02;8.63;;;2.40;99.90;;;-0.42;100.00;102247.06;4976858;28;20060;-91
2022/02/27 01:44:32;;;;;;;16.65;7.38;;;2.40;99.90;;;-0.52;100.00;102221.66;4912015;28;20044;-91
2022/02/27 01:47:07;;;;;;;19.88;7.88;;;2.40;99.90;;;-0.53;100.00;102230.66;4976041;28;20691;-92
2022/02/27 01:49:36;;;;;;;21.42;7.85;;;2.40;99.90;;;-0.47;100.00;102241.06;4910775;29;20464;-91
2022/02/27 01:52:10;;;;;;;23.73;7.93;;;2.40;99.90;;;-0.49;100.00;102247.41;4992026;28;20048;-91
2022/02/27 01:54:38;;;;;;;22.88;7.78;;;2.40;99.90;;;-0.57;100.00;102228.16;4910959;29;20045;-92
2022/02/27 01:57:06;;;;;;;23.83;8.40;;;2.40;99.90;;;-0.53;100.00;102246.69;4910457;29;20040;-91
2022/02/27 01:59:37;;;;;;;20.63;7.97;;;2.30;99.90;;;-0.55;100.00;102239.66;4991701;28;20048;-91
2022/02/27 02:02:08;;;;;;;15.93;7.67;;;2.30;99.90;;;-0.73;100.00;102230.69;4992388;28;20106;-92
2022/02/27 02:04:38;;;;;;;22.05;7.75;;;2.30;99.90;;;-0.63;100.00;102240.91;4974912;28;20839;-91
2022/02/27 02:07:07;;;;;;;19.40;8.23;;;2.20;99.90;;;-0.61;100.00;102240.81;4975562;28;20494;-92
2022/02/27 02:09:40;;;;;;;22.17;8.32;;;2.20;99.90;;;-0.55;100.00;102253.91;4991972;28;20139;-92
2022/02/27 02:12:20;;;;;;;16.98;8.02;;;2.20;99.90;;;-0.55;100.00;102247.69;4909460;28;20052;-91
2022/02/27 02:14:50;;;;;;;19.17;7.18;;;2.20;99.90;;;-0.58;100.00;102243.34;4911321;29;20513;-92
2022/02/27 02:17:21;;;;;;;21.75;7.68;;;2.20;99.90;;;-0.73;100.00;102238.69;4975468;28;20059;-91
2022/02/27 02:19:55;;;;;;;22.55;8.05;;;2.20;99.90;;;-0.69;100.00;102245.63;4910019;28;20044;-92
2022/02/27 02:22:24;;;;;;;18.70;7.38;;;2.20;99.90;;;-0.78;100.00;102236.25;4991961;28;20052;-92
2022/02/27 02:24:52;;;;;;;20.73;7.80;;;2.10;99.90;;;-0.83;100.00;102227.56;4910218;29;20036;-91
2022/02/27 02:27:21;;;;;;;23.17;7.05;;;2.10;99.90;;;-0.75;100.00;102246.78;4975084;28;20403;-92
2022/02/27 02:29:48;;;;;;;24.13;8.02;;;2.10;99.90;;;-0.79;100.00;102235.34;4991640;28;20045;-92
2022/02/27 02:32:17;;;;;;;17.80;7.30;;;2.10;99.90;;;-0.83;100.00;102228.41;4991541;28;20103;-92
2022/02/27 02:34:47;;;;;;;;;;;2.10;99.90;;;-0.75;100.00;102235.22;4992197;28;20048;-92
2022/02/27 02:37:16;;;;;;;21.30;8.00;;;2.10;99.90;;;-0.76;100.00;102239.72;4910400;29;20311;-92
2022/02/27 02:39:43;;;;;;;19.08;7.70;;;2.10;99.90;;;-0.85;100.00;102229.44;4974801;28;20048;-91
2022/02/27 02:42:12;;;;;;;19.35;7.53;;;2.10;99.90;;;-0.83;100.00;102228.41;4991616;28;20086;-92
2022/02/27 02:44:43;;;;;;;20.88;8.65;;;2.10;99.90;;;-0.85;100.00;102214.25;4975035;28;20048;-91
2022/02/27 02:47:13;;;;;;;25.05;8.70;;;2.20;99.90;;;-0.73;100.00;102223.50;4909782;29;20514;-92
2022/02/27 02:49:40;;;;;;;23.42;8.93;;;2.10;99.90;;;-0.75;100.00;102221.84;4909946;29;20048;-93
2022/02/27 02:52:08;;;;;;;21.15;7.75;;;2.10;99.90;;;-0.79;100.00;102226.47;4912305;29;20429;-92
2022/02/27 02:54:37;;;;;;;19.88;8.25;;;2.10;99.90;;;-0.72;100.00;102224.38;4908133;29;20505;-92
2022/02/27 02:57:05;;;;;;;24.55;7.82;;;2.10;99.90;;;-0.70;100.00;102223.38;4991441;28;20052;-92
2022/02/27 02:59:33;;;;;;;24.55;8.05;;;2.10;99.90;;;-0.73;100.00;102201.28;4909870;29;20044;-91
2022/02/27 03:02:02;;;;;;;21.38;8.70;;;2.10;99.90;;;-0.66;100.00;102218.78;4909102;29;20095;-92
2022/02/27 03:04:29;;;;;;;16.27;7.28;;;2.10;99.90;;;-0.66;100.00;102213.44;4976679;28;20538;-91
2022/02/27 03:06:56;;;;;;;22.05;7.78;;;2.10;99.90;;;-0.67;100.00;102212.53;4913078;29;20044;-91
2022/02/27 03:09:23;;;;;;;23.55;8.50;;;2.10;99.90;;;-0.68;100.00;102207.28;4994430;28;20102;-92
2022/02/27 03:11:52;;;;;;;24.80;7.60;;;2.10;99.90;;;-0.65;100.00;102207.13;4913164;29;20040;-92
2022/02/27 03:14:19;;;;;;;17.45;7.68;;;2.10;99.90;;;-0.65;100.00;102209.81;4994754;28;20468;-92
2022/02/27 03:16:47;;;;;;;24.15;7.45;;;2.10;99.90;;;-0.64;100.00;102208.88;4912916;29;20553;-92
2022/02/27 03:19:14;;;;;;;18.05;7.05;;;2.10;99.90;;;-0.59;100.00;102201.53;4912785;29;20044;-91
2022/02/27 03:21:41;;;;;;;19.88;7.75;;;2.10;99.90;;;-0.57;100.00;102194.28;4993972;28;20082;-91
2022/02/27 03:24:11;;;;;;;26.85;7.63;;;2.10;99.90;;;-0.61;100.00;102201.59;4912628;29;20053;-91
2022/02/27 03:26:38;;;;;;;23.08;7.85;;;2.10;99.90;;;-0.65;100.00;102205.34;4912906;28;20609;-91
2022/02/27 03:29:07;;;;;;;20.58;7.55;;;2.10;99.90;;;-0.65;100.00;102200.00;4994413;28;20051;-92
2022/02/27 03:31:34;;;;;;;22.30;8.23;;;2.10;99.90;;;-0.63;100.00;102199.91;4912744;29;20102;-92
2022/02/27 03:34:02;;;;;;;15.30;6.60;;;2.10;99.90;;;-0.67;100.00;102206.31;4912505;29;20143;-91
2022/02/27 03:36:29;;;;;;;25.45;7.55;;;2.10;99.90;;;-0.74;100.00;102210.22;4994172;28;20043;-91
2022/02/27 03:38:56;;;;;;;17.92;7.47;;;2.10;99.90;;;-0.70;100.00;102204.69;4978714;28;20048;-92
2022/02/27 03:41:24;;;;;;;16.25;7.03;;;2.10;99.90;;;-0.65;100.00;102200.00;4993397;28;20092;-92
2022/02/27 03:43:51;;;;;;;23.77;7.68;;;2.00;99.90;;;-0.67;100.00;102192.97;4912479;29;20040;-92
2022/02/27 03:46:20;;;;;;;28.20;8.48;;;2.00;99.90;;;-0.62;100.00;102191.81;4977072;28;20071;-91
2022/02/27 03:48:47;;;;;;;20.90;7.93;;;2.00;99.90;;;-0.62;100.00;102180.25;4912540;29;20134;-93
2022/02/27 03:51:14;;;;;;;19.25;7.22;;;2.00;99.90;;;-0.62;100.00;102193.63;4977984;28;20044;-92
2022/02/27 03:53:41;;;;;;;20.60;6.95;;;2.10;99.90;;;-0.72;100.00;102176.25;4978276;28;20055;-91
2022/02/27 03:56:09;;;;;;;18.55;7.03;;;2.00;99.90;;;-0.66;100.00;102184.88;4912624;29;20438;-91
2022/02/27 03:58:36;;;;;;;18.92;7.30;;;2.00;99.90;;;-0.77;100.00;102183.63;4912070;29;20078;-91
2022/02/27 04:01:03;;;;;;;20.95;8.10;;;2.00;99.90;;;-0.71;100.00;102196.72;4912221;28;20043;-91
2022/02/27 04:03:32;;;;;;;23.17;7.57;;;2.00;99.90;;;-0.74;100.00;102188.81;4912524;29;20042;-91
2022/02/27 04:05:59;;;;;;;18.38;7.05;;;2.00;99.90;;;-0.77;100.00;102191.66;4911329;29;20056;-92
2022/02/27 04:08:27;;;;;;;19.25;8.18;;;2.00;99.90;;;-0.70;100.00;102199.31;4911802;29;20044;-91
2022/02/27 04:10:54;;;;;;;19.48;6.63;;;2.00;99.90;;;-0.74;100.00;102194.16;4977363;28;20048;-91
2022/02/27 04:13:22;;;;;;;17.50;7.53;;;2.00;99.90;;;-0.75;100.00;102195.13;4911509;29;20044;-91
2022/02/27 04:15:49;;;;;;;26.05;7.68;;;2.00;99.90;;;-0.76;100.00;102204.06;4911314;28;20064;-92
2022/02/27 04:18:16;;;;;;;26.23;7.78;;;2.00;99.90;;;-0.81;100.00;102199.81;4994180;28;20076;-91
2022/02/27 04:20:45;;;;;;;19.13;7.25;;;1.90;99.90;;;-0.73;100.00;102206.63;4993045;28;20514;-92
2022/02/27 04:23:12;;;;;;;20.50;7.70;;;1.90;99.90;;;-0.77;100.00;102205.03;4912191;29;20054;-93
2022/02/27 04:25:40;;;;;;;21.50;7.30;;;1.90;99.90;;;-0.73;100.00;102206.63;4912128;29;20514;-92
2022/02/27 04:28:07;;;;;;;19.70;7.55;;;1.90;99.90;;;-0.81;100.00;102197.13;4911672;29;20052;-91
2022/02/27 04:30:34;;;;;;;19.58;7.43;;;1.90;99.90;;;-0.83;100.00;102199.00;4911938;29;20079;-92
2022/02/27 04:33:02;;;;;;;17.45;7.13;;;1.90;99.90;;;-0.83;100.00;102203.50;4911850;29;20327;-93
2022/02/27 04:35:30;;;;;;;24.05;7.43;;;1.90;99.90;;;-0.85;100.00;102203.56;4911861;28;20068;-92
2022/02/27 04:37:59;;;;;;;15.45;7.05;;;1.90;99.90;;;-0.86;100.00;102195.59;4993100;28;20048;-92
2022/02/27 04:40:28;;;;;;;19.00;7.45;;;1.90;99.90;;;-0.92;100.00;102196.75;4911984;29;20098;-92
2022/02/27 04:42:55;;;;;;;20.80;7.43;;;1.90;99.90;;;-0.92;100.00;102201.22;4911971;29;20741;-91
2022/02/27 04:45:22;;;;;;;19.30;7.30;;;1.80;99.90;;;-0.94;100.00;102209.31;4912511;29;20044;-90
2022/02/27 04:47:50;;;;;;;18.40;7.30;;;1.80;99.90;;;-1.01;100.00;102191.81;4911800;29;20040;-92
2022/02/27 04:50:17;;;;;;;26.27;7.97;;;1.80;99.90;;;-0.96;100.00;102200.50;4911221;29;20051;-91
2022/02/27 04:52:44;;;;;;;17.77;7.32;;;1.90;99.90;;;-1.08;100.00;102201.06;4995398;28;20114;-90
2022/02/27 04:55:13;;;;;;;21.05;8.15;;;1.80;99.90;;;-1.08;100.00;102193.03;4911244;29;20072;-91
2022/02/27 04:57:40;;;;;;;21.02;7.43;;;1.80;99.90;;;-1.04;100.00;102208.84;4896748;29;20075;-91
2022/02/27 05:00:10;;;;;;;24.33;7.57;;;1.80;99.90;;;-1.00;100.00;102204.25;4992667;28;20044;-91
2022/02/27 05:02:38;;;;;;;19.00;7.25;;;1.80;99.90;;;-1.02;100.00;102201.63;4911298;29;20083;-91
2022/02/27 05:05:07;;;;;;;21.60;7.57;;;1.70;99.90;;;-1.03;100.00;102201.69;4911603;29;20055;-92
2022/02/27 05:07:35;;;;;;;21.50;8.13;;;1.80;99.90;;;-1.05;100.00;102198.22;4911383;29;20107;-91
2022/02/27 05:10:04;;;;;;;24.23;8.13;;;1.70;99.90;;;-1.08;100.00;102195.72;4976418;28;20110;-91
2022/02/27 05:12:33;;;;;;;19.95;7.88;;;1.70;99.90;;;-1.13;100.00;102193.22;4911377;29;20135;-91
2022/02/27 05:15:00;;;;;;;19.20;7.60;;;1.70;99.90;;;-1.20;100.00;102197.09;4910783;28;20046;-91
2022/02/27 05:17:27;;;;;;;16.67;7.43;;;1.70;99.90;;;-1.26;100.00;102189.34;4992604;28;20147;-92
2022/02/27 05:19:55;;;;;;;19.08;8.07;;;1.70;99.90;;;-1.23;100.00;102198.09;4976417;28;20695;-91
2022/02/27 05:22:22;;;;;;;16.30;7.90;;;1.70;99.90;;;-1.28;100.00;102200.09;4992377;28;20050;-91
2022/02/27 05:24:49;;;;;;;19.08;7.72;;;1.60;99.90;;;-1.32;100.00;102202.97;4992336;28;20083;-92
2022/02/27 05:27:16;;;;;;;20.58;8.07;;;1.60;99.90;;;-1.38;100.00;102201.44;4910297;29;20162;-90
2022/02/27 05:29:45;;;;;;;18.63;7.80;;;1.60;99.90;;;-1.37;100.00;102205.88;4976132;28;20571;-90
2022/02/27 05:32:12;;;;;;;19.13;7.45;;;1.60;99.90;;;-1.39;100.00;102202.34;4910616;29;20114;-92
2022/02/27 05:34:40;;;;;;;15.55;7.43;;;1.50;99.90;;;-1.43;100.00;102206.09;4911172;28;20048;-91
2022/02/27 05:37:07;;;;;;;25.17;7.78;;;1.50;99.90;;;-1.42;100.00;102206.03;4910918;29;20055;-92
2022/02/27 05:39:34;;;;;;;25.23;8.38;;;1.50;99.90;;;-1.41;100.00;102201.56;4992179;28;20159;-91
2022/02/27 05:42:02;;;;;;;23.35;8.07;;;1.50;99.90;;;-1.39;100.00;102200.59;4992358;28;20114;-91
2022/02/27 05:44:29;;;;;;;19.30;8.45;;;1.50;99.90;;;-1.36;100.00;102212.91;4975569;28;20080;-91
2022/02/27 05:46:57;;;;;;;17.80;7.55;;;1.70;99.90;;;-1.36;100.00;102209.41;4910969;29;20037;-92
2022/02/27 05:49:25;;;;;;;23.08;7.85;;;1.50;99.90;;;-1.47;100.00;102196.50;4910851;29;20076;-90
2022/02/27 05:51:52;;;;;;;17.92;7.43;;;1.50;99.90;;;-1.47;100.00;102204.50;4910361;29;20123;-91
2022/02/27 05:54:19;;;;;;;25.08;7.65;;;1.50;99.90;;;-1.46;100.00;102216.94;4975560;28;20044;-92
2022/02/27 05:56:47;;;;;;;20.58;7.47;;;1.50;99.90;;;-1.49;100.00;102206.38;4976049;28;20143;-92
2022/02/27 05:59:14;;;;;;;21.52;7.82;;;1.40;99.90;;;-1.53;100.00;102210.97;4991216;28;20530;-91
2022/02/27 06:01:41;;;;;;;19.65;7.75;;;1.40;99.90;;;-1.53;100.00;102216.31;4910799;28;20494;-86
2022/02/27 06:04:10;;;;;;;17.33;7.45;;;1.40;99.90;;;-1.55;100.00;102207.50;4910640;29;20127;-85
2022/02/27 06:06:37;;;;;;;24.85;7.95;;;1.40;99.90;;;-1.53;100.00;102208.28;4910583;28;20044;-90
2022/02/27 06:09:05;;;;;;;18.13;7.65;;;1.40;99.90;;;-1.54;100.00;102203.91;4917937;29;20076;-94
2022/02/27 06:11:51;;;;;;;18.60;7.82;;;1.40;99.90;;;-1.58;100.00;102213.84;4918066;29;20473;-93
2022/02/27 06:14:19;;;;;;;17.10;7.72;;;1.30;99.90;;;-1.68;100.00;102204.47;4910810;29;20048;-93
2022/02/27 06:16:47;;;;;;;22.83;7.85;;;1.30;99.90;;;-1.76;100.00;102187.91;4992772;28;20044;-94
2022/02/27 06:19:22;;;;;;;21.17;7.97;;;1.30;99.90;;;-1.67;100.00;102210.69;4994742;28;20044;-94
2022/02/27 06:21:50;;;;;;;21.27;7.38;;;1.30;99.90;;;-1.64;100.00;102205.22;4993312;28;20052;-92
2022/02/27 06:24:17;;;;;;;22.10;8.00;;;1.30;99.90;;;-1.61;100.00;102200.63;4911224;29;20422;-94
2022/02/27 06:26:45;;;;;;;18.00;7.68;;;1.30;99.90;;;-1.58;100.00;102213.84;4993296;28;20150;-92
2022/02/27 06:29:13;;;;;;;18.42;8.00;;;1.30;99.90;;;-1.61;100.00;102205.94;4976364;28;20055;-93
2022/02/27 06:31:40;;;;;;;18.02;7.85;;;1.30;99.90;;;-1.68;100.00;102201.78;4992415;28;20056;-93
2022/02/27 06:34:15;;;;;;;20.85;8.43;;;1.30;99.90;;;-1.64;100.00;102200.75;4976449;28;20410;-94
2022/02/27 06:36:42;;;;;;;22.88;7.95;;;1.20;99.90;;;-1.66;100.00;102207.94;4956549;28;20045;-94
2022/02/27 06:39:10;;;;;;;17.58;8.13;;;1.20;99.90;;;-1.67;100.00;102208.88;4986961;28;20545;-92
2022/02/27 06:41:37;;;;;;;21.98;8.30;;;1.20;99.90;;;-1.56;100.00;102232.47;4995361;28;20048;-92
2022/02/27 06:44:05;;;;;;;21.20;8.23;;;1.30;99.90;;;-1.59;100.00;102214.75;4996265;28;20058;-94
2022/02/27 06:46:33;;;;;;;23.92;8.10;;;1.30;99.90;;;-1.52;100.00;102217.16;4995760;28;20060;-94
2022/02/27 06:49:00;;;;;;;25.98;9.07;;;1.30;99.90;;;-1.53;100.00;102226.13;4995261;28;20087;-94
2022/02/27 06:51:29;;;;;;;25.55;9.00;;;1.30;99.90;;;-1.47;100.00;102231.19;4979062;28;20048;-93
2022/02/27 06:53:56;;;;;;;20.90;7.68;;;1.30;99.90;;;-1.46;100.00;102219.59;4995509;28;20098;-91
2022/02/27 06:56:25;;;;;;;18.55;8.82;;;1.30;99.90;;;-1.40;100.00;102219.34;4914281;29;20123;-90
2022/02/27 06:58:53;;;;;;;22.52;8.82;;;1.30;99.90;;;-1.32;100.00;102214.53;4912782;29;20044;-92
2022/02/27 07:01:20;;;;;;;22.63;8.18;;;1.30;99.90;;;-1.18;100.00;102221.97;4913377;29;20052;-91
2022/02/27 07:03:48;;;;;;;20.60;8.60;;;1.40;99.90;;;-1.10;100.00;102208.28;4994892;28;20503;-92
2022/02/27 07:06:15;;;;;;;25.42;8.65;;;1.40;99.90;;;-1.09;100.00;102215.34;4913009;29;20052;-91
2022/02/27 07:08:44;;;;;;;22.95;8.30;;;1.40;99.90;;;-1.03;100.00;102212.38;4912828;29;20102;-90
2022/02/27 07:11:11;;;;;;;19.92;8.02;;;1.50;99.90;;;-0.94;100.00;102214.66;4913117;28;20713;-91
2022/02/27 07:13:41;;;;;;;24.25;9.05;;;1.50;99.90;;;-0.87;100.00;102216.13;4913374;29;20044;-92
2022/02/27 07:16:08;;;;;;;19.25;8.75;;;1.50;99.90;;;-0.79;100.00;102219.31;4912871;29;20040;-92
2022/02/27 07:18:36;;;;;;;26.85;9.27;;;1.50;99.90;;;-0.69;100.00;102229.59;4978094;28;20569;-91
2022/02/27 07:21:03;;;;;;;21.02;9.10;;;1.60;99.90;;;-0.64;100.00;102222.25;4912922;28;20052;-91
2022/02/27 07:23:30;;;;;;;19.63;9.43;;;1.60;99.90;;;-0.51;100.00;102239.47;4995054;28;20307;-90
2022/02/27 07:25:59;;;;;;;21.13;9.77;;;1.70;99.90;;;-0.43;100.00;102229.25;4912171;28;20098;-90
2022/02/27 07:28:59;;;;;;;27.35;9.48;;;1.70;99.90;;;-0.39;100.00;102232.66;4913426;29;20094;-95
2022/02/27 07:31:33;;;;;;;19.65;8.50;;;1.80;99.90;;;-0.30;100.00;102221.53;4972665;28;20056;-94
2022/02/27 07:34:02;;;;;;;24.45;9.20;;;1.80;99.90;;;-0.17;100.00;102235.22;4995094;28;20497;-92
2022/02/27 07:36:30;;;;;;;21.30;9.48;;;1.80;99.90;;;-0.05;100.00;102233.75;4912706;29;20048;-92
2022/02/27 07:38:57;;;;;;;26.15;9.43;;;1.90;99.90;;;-0.03;100.00;102223.84;4913031;29;20052;-92
2022/02/27 07:41:26;;;;;;;23.88;10.23;;;2.00;99.90;;;-0.02;100.00;102222.88;4912427;29;20484;-91
2022/02/27 07:44:01;;;;;;;20.25;8.55;;;2.00;99.90;;;0.13;100.00;102229.31;4994473;28;20130;-90
2022/02/27 07:46:31;;;;;;;23.25;9.18;;;2.10;99.90;;;0.27;100.00;102221.50;4911915;28;20106;-89
2022/02/27 07:48:59;;;;;;;18.65;8.52;;;2.20;99.90;;;0.40;100.00;102227.13;4912657;29;20114;-90
2022/02/27 07:51:28;;;;;;;22.88;8.70;;;2.20;99.90;;;0.51;100.00;102234.59;4911487;29;20051;-89
2022/02/27 07:53:56;;;;;;;17.05;8.57;;;2.30;99.90;;;0.62;100.00;102231.38;4994203;28;20175;-93
2022/02/27 07:56:25;;;;;;;21.00;8.68;;;2.40;99.90;;;0.72;100.00;102232.63;4912297;29;20047;-91
2022/02/27 07:58:53;;;;;;;21.50;8.48;;;2.40;99.90;;;0.80;100.00;102229.56;4912700;29;20418;-92
2022/02/27 08:01:20;;;;;;;20.95;9.05;;;2.40;99.90;;;0.96;100.00;102233.19;4994173;28;20044;-92
2022/02/27 08:03:48;;;;;;;19.70;8.15;;;2.50;99.90;;;0.98;100.00;102221.44;4977791;28;20052;-90
2022/02/27 08:09:14;;;;;;;22.38;8.70;;;2.70;99.90;;;1.24;100.00;102229.03;4966415;28;20395;-90
2022/02/27 08:11:43;;;;;;;22.02;8.30;;;2.70;99.90;;;1.29;100.00;102232.34;4948325;28;20131;-90
2022/02/27 08:16:52;;;;;;;21.42;8.20;;;2.90;99.90;;;1.39;100.00;102233.63;5212006;23;20081;-85
2022/02/27 08:19:19;;;;;;;17.35;7.82;;;2.90;99.90;;;1.43;100.00;102239.66;4973546;28;20125;-87
2022/02/27 08:21:47;;;;;;;18.98;8.30;;;3.00;99.90;;;1.48;100.00;102238.47;4990070;28;20586;-85
2022/02/27 08:24:15;;;;;;;25.35;8.57;;;3.10;99.90;;;1.52;100.00;102240.06;4990360;28;20400;-87
2022/02/27 08:26:43;;;;;;;17.55;8.05;;;3.20;99.90;;;1.58;100.00;102243.31;4953361;28;20467;-85
2022/02/27 08:31:52;;;;;;;21.50;8.07;;;3.20;99.90;;;1.71;100.00;102239.03;5101563;22;20542;-83
2022/02/27 08:34:19;;;;;;;21.55;8.88;;;3.30;99.90;;;1.76;100.00;102236.97;4990657;28;20069;-84
2022/02/27 08:36:47;;;;;;;20.02;8.50;;;3.50;99.90;;;1.81;100.00;102234.91;5018318;28;20057;-84
2022/02/27 08:39:15;;;;;;;21.63;8.75;;;3.50;99.90;;;1.89;100.00;102237.16;5023163;28;20048;-82
2022/02/27 08:41:44;;;;;;;23.48;8.77;;;3.50;99.90;;;1.91;100.00;102232.56;5007484;28;20063;-83
2022/02/27 08:44:14;;;;;;;16.20;7.97;;;3.60;99.90;;;1.93;100.00;102228.81;5027291;22;20053;-91
2022/02/27 08:46:50;;;;;;;17.77;8.02;;;3.60;99.90;;;1.98;100.00;102225.00;5030318;28;20264;-90
2022/02/27 08:49:18;;;;;;;15.52;7.60;;;3.70;99.90;;;2.13;100.00;102235.78;4992743;28;20173;-88
2022/02/27 08:51:46;;;;;;;19.58;8.38;;;3.70;99.90;;;2.12;99.81;102225.09;5010111;28;20077;-90
2022/02/27 08:54:13;;;;;;;19.67;9.38;;;3.80;99.90;;;2.26;99.32;102229.69;5007372;28;20052;-89
2022/02/27 08:56:41;;;;;;;17.33;7.55;;;3.80;99.90;;;2.24;98.83;102220.84;5016036;28;20126;-88
2022/02/27 08:59:09;;;;;;;19.77;7.90;;;3.90;99.90;;;2.35;99.35;102230.00;5011380;28;20507;-88
2022/02/27 09:01:37;;;;;;;23.10;8.13;;;3.90;99.90;;;2.42;98.13;102229.66;5010190;28;20069;-89
2022/02/27 09:04:04;;;;;;;17.88;7.28;;;4.00;99.90;;;2.46;97.59;102220.47;4998220;28;20121;-90
2022/02/27 09:06:32;;;;;;;15.52;6.85;;;4.10;99.90;;;2.52;98.06;102217.41;5011508;28;20511;-90
2022/02/27 09:08:59;;;;;;;16.38;7.63;;;4.10;99.90;;;2.56;98.04;102216.28;5020374;28;20060;-84
2022/02/27 09:11:26;;;;;;;17.50;7.30;;;4.20;99.90;;;2.59;98.30;102215.22;5031771;28;20761;-87
2022/02/27 09:13:54;;;;;;;18.77;7.68;;;4.20;99.90;;;2.60;96.78;102223.19;5028070;28;20560;-87
2022/02/27 09:16:22;;;;;;;12.68;6.75;;;4.20;99.90;;;2.61;96.14;102224.06;5000900;28;20463;-82
2022/02/27 09:18:49;;;;;;;22.67;6.95;;;4.20;99.90;;;2.69;96.45;102217.28;5024713;28;20503;-82
2022/02/27 09:21:17;;;;;;;14.65;6.53;;;4.30;99.90;;;2.72;95.31;102205.47;5010001;28;20127;-87
2022/02/27 09:23:44;;;;;;;19.30;6.78;;;4.30;99.90;;;2.79;94.99;102205.97;5009017;28;20053;-86
2022/02/27 09:26:11;;;;;;;13.23;6.20;;;4.40;99.90;;;2.80;95.28;102207.69;5010258;28;20125;-87
2022/02/27 09:28:38;;;;;;;16.05;6.85;;;4.40;99.90;;;2.87;94.24;102206.38;5010062;28;20092;-86
2022/02/27 09:31:09;;;;;;;13.77;5.53;;;4.50;99.90;;;2.88;95.07;102206.28;5008538;28;20140;-87
2022/02/27 09:33:38;;;;;;;16.85;5.47;;;4.50;99.90;;;2.93;94.06;102209.56;5010158;28;20557;-87
2022/02/27 09:36:07;;;;;;;14.25;6.10;;;4.50;99.90;;;2.97;93.43;102212.94;5010172;28;20046;-87
2022/02/27 09:38:35;;;;;;;16.60;6.25;;;4.60;99.90;;;3.04;93.73;102208.03;5008712;28;20145;-87
2022/02/27 09:41:03;;;;;;;14.45;5.97;;;4.60;99.90;;;3.12;94.70;102213.81;5008492;28;20073;-87
2022/02/27 09:43:30;;;;;;;15.23;5.88;;;4.70;99.90;;;3.13;92.38;102211.03;5008752;28;20042;-87
2022/02/27 09:45:59;;;;;;;14.02;5.93;;;4.70;99.90;;;3.20;92.84;102210.66;5044760;28;20087;-86
2022/02/27 09:48:28;;;;;;;14.15;6.18;;;4.80;99.90;;;3.23;93.63;102205.94;5049597;28;20134;-86
2022/02/27 09:50:57;;;;;;;15.48;6.45;;;4.80;99.90;;;3.26;92.77;102210.28;5049078;28;20120;-86
2022/02/27 09:53:24;;;;;;;12.30;5.10;;;4.90;99.90;;;3.31;92.47;102202.78;5049575;28;20111;-87
2022/02/27 09:55:51;;;;;;;15.38;5.65;;;4.90;99.90;;;3.39;92.28;102200.50;5049455;28;20127;-87
2022/02/27 09:58:19;;;;;;;14.18;5.68;;;5.00;99.90;;;3.44;92.01;102192.97;5049380;28;20384;-86
2022/02/27 10:00:46;;;;;;;13.45;5.32;;;5.00;99.90;;;3.50;90.75;102198.00;5048968;28;20079;-87
2022/02/27 10:03:15;;;;;;;12.70;5.25;;;5.10;99.90;;;3.60;90.00;102194.69;5031510;28;20049;-86
2022/02/27 10:05:45;;;;;;;12.73;4.90;;;5.10;99.90;;;3.65;89.66;102200.66;5049236;28;20045;-87
2022/02/27 10:08:16;;;;;;;11.80;5.38;;;5.30;99.90;;;3.73;89.19;102198.31;5049391;28;20115;-86
2022/02/27 10:10:57;;;;;;;12.65;4.90;;;5.20;99.80;;;3.82;89.12;102197.75;5039502;28;20149;-86
2022/02/27 10:13:36;;;;;;;12.93;4.53;;;5.30;98.80;;;3.94;89.05;102200.59;5028906;28;20115;-87
2022/02/27 10:16:06;;;;;;;12.95;4.20;;;5.40;98.90;;;3.98;88.57;102194.03;5029095;28;20049;-87
2022/02/27 10:18:42;;;;;;;10.38;2.80;;;5.50;98.80;;;4.03;84.21;102198.16;5029403;28;20120;-87
2022/02/27 10:21:25;;;;;;;7.05;2.47;;;5.60;96.50;;;4.03;82.78;102187.38;5028941;28;20132;-87
2022/02/27 10:24:02;;;;;;;8.63;2.53;;;5.60;93.20;;;4.14;81.87;102196.63;5029260;28;20052;-87